sensor_id;sensor_type;location;lat;lon;timestamp;P1;durP1;ratioP1;P2;durP2;ratioP2
25950;SDS011;13748;52.240;6.002;2022-08-04T00:00:06;13.73;;;6.60;;
25950;SDS011;13748;52.240;6.002;2022-08-04T00:10:55;12.18;;;8.05;;
25950;SDS011;13748;52.240;6.002;2022-08-04T00:13:26;13.55;;;7.90;;
25950;SDS011;13748;52.240;6.002;2022-08-04T00:15:57;13.60;;;7.60;;
25950;SDS011;13748;52.240;6.002;2022-08-04T00:19:02;15.20;;;7.57;;
25950;SDS011;13748;52.240;6.002;2022-08-04T00:21:25;10.05;;;6.60;;
25950;SDS011;13748;52.240;6.002;2022-08-04T00:23:54;14.38;;;7.47;;
25950;SDS011;13748;52.240;6.002;2022-08-04T00:26:38;15.48;;;8.00;;
25950;SDS011;13748;52.240;6.002;2022-08-04T00:29:05;17.90;;;8.05;;
25950;SDS011;13748;52.240;6.002;2022-08-04T00:31:32;16.10;;;7.57;;
25950;SDS011;13748;52.240;6.002;2022-08-04T00:34:19;12.45;;;7.35;;
25950;SDS011;13748;52.240;6.002;2022-08-04T00:36:47;17.40;;;8.75;;
25950;SDS011;13748;52.240;6.002;2022-08-04T00:39:15;13.20;;;6.88;;
25950;SDS011;13748;52.240;6.002;2022-08-04T00:41:51;10.32;;;6.75;;
25950;SDS011;13748;52.240;6.002;2022-08-04T00:44:29;10.45;;;6.35;;
25950;SDS011;13748;52.240;6.002;2022-08-04T00:50:11;13.50;;;6.38;;
25950;SDS011;13748;52.240;6.002;2022-08-04T00:52:53;9.50;;;5.55;;
25950;SDS011;13748;52.240;6.002;2022-08-04T01:00:58;9.55;;;4.90;;
25950;SDS011;13748;52.240;6.002;2022-08-04T01:06:44;8.60;;;5.68;;
25950;SDS011;13748;52.240;6.002;2022-08-04T01:09:32;11.50;;;5.18;;
25950;SDS011;13748;52.240;6.002;2022-08-04T01:12:27;11.60;;;5.40;;
25950;SDS011;13748;52.240;6.002;2022-08-04T01:20:05;8.75;;;4.75;;
25950;SDS011;13748;52.240;6.002;2022-08-04T01:22:49;7.20;;;4.82;;
25950;SDS011;13748;52.240;6.002;2022-08-04T01:29:26;5.70;;;4.75;;
25950;SDS011;13748;52.240;6.002;2022-08-04T01:34:52;7.70;;;4.90;;
25950;SDS011;13748;52.240;6.002;2022-08-04T01:40:07;10.02;;;5.45;;
25950;SDS011;13748;52.240;6.002;2022-08-04T01:42:35;10.20;;;5.45;;
25950;SDS011;13748;52.240;6.002;2022-08-04T01:45:05;9.57;;;5.45;;
25950;SDS011;13748;52.240;6.002;2022-08-04T01:47:34;7.43;;;5.25;;
25950;SDS011;13748;52.240;6.002;2022-08-04T01:50:06;10.73;;;6.15;;
25950;SDS011;13748;52.240;6.002;2022-08-04T01:52:35;8.88;;;5.60;;
25950;SDS011;13748;52.240;6.002;2022-08-04T01:55:05;14.38;;;5.85;;
25950;SDS011;13748;52.240;6.002;2022-08-04T01:57:44;9.93;;;5.82;;
25950;SDS011;13748;52.240;6.002;2022-08-04T02:00:19;11.38;;;5.97;;
25950;SDS011;13748;52.240;6.002;2022-08-04T02:02:50;13.35;;;5.50;;
25950;SDS011;13748;52.240;6.002;2022-08-04T02:05:19;10.98;;;5.65;;
25950;SDS011;13748;52.240;6.002;2022-08-04T02:10:29;7.82;;;5.47;;
25950;SDS011;13748;52.240;6.002;2022-08-04T02:16:01;8.77;;;5.25;;
25950;SDS011;13748;52.240;6.002;2022-08-04T02:21:30;8.13;;;5.88;;
25950;SDS011;13748;52.240;6.002;2022-08-04T02:24:09;12.52;;;5.65;;
25950;SDS011;13748;52.240;6.002;2022-08-04T02:26:40;9.50;;;5.60;;
25950;SDS011;13748;52.240;6.002;2022-08-04T02:37:00;12.52;;;7.47;;
25950;SDS011;13748;52.240;6.002;2022-08-04T02:39:32;13.63;;;7.93;;
25950;SDS011;13748;52.240;6.002;2022-08-04T02:42:14;14.07;;;7.80;;
25950;SDS011;13748;52.240;6.002;2022-08-04T02:44:42;14.75;;;7.22;;
25950;SDS011;13748;52.240;6.002;2022-08-04T02:47:14;12.50;;;7.15;;
25950;SDS011;13748;52.240;6.002;2022-08-04T02:49:44;10.90;;;7.07;;
25950;SDS011;13748;52.240;6.002;2022-08-04T02:52:12;16.55;;;7.65;;
25950;SDS011;13748;52.240;6.002;2022-08-04T02:54:41;10.15;;;7.28;;
25950;SDS011;13748;52.240;6.002;2022-08-04T02:57:11;12.82;;;6.57;;
25950;SDS011;13748;52.240;6.002;2022-08-04T03:03:19;11.40;;;7.32;;
25950;SDS011;13748;52.240;6.002;2022-08-04T03:05:21;8.73;;;6.45;;
25950;SDS011;13748;52.240;6.002;2022-08-04T03:32:48;10.88;;;6.13;;
25950;SDS011;13748;52.240;6.002;2022-08-04T03:41:33;9.30;;;5.32;;
25950;SDS011;13748;52.240;6.002;2022-08-04T04:05:40;13.13;;;5.97;;
25950;SDS011;13748;52.240;6.002;2022-08-04T04:25:54;15.65;;;7.18;;
25950;SDS011;13748;52.240;6.002;2022-08-04T04:28:04;11.98;;;6.43;;
25950;SDS011;13748;52.240;6.002;2022-08-04T04:36:37;9.90;;;6.32;;
25950;SDS011;13748;52.240;6.002;2022-08-04T04:39:15;9.85;;;6.45;;
25950;SDS011;13748;52.240;6.002;2022-08-04T04:47:59;9.35;;;6.25;;
25950;SDS011;13748;52.240;6.002;2022-08-04T04:56:24;11.68;;;6.43;;
25950;SDS011;13748;52.240;6.002;2022-08-04T04:58:57;7.78;;;4.90;;
25950;SDS011;13748;52.240;6.002;2022-08-04T05:10:21;8.80;;;5.45;;
25950;SDS011;13748;52.240;6.002;2022-08-04T05:13:02;8.38;;;5.60;;
25950;SDS011;13748;52.240;6.002;2022-08-04T05:16:18;7.63;;;5.07;;
25950;SDS011;13748;52.240;6.002;2022-08-04T05:18:53;12.40;;;5.57;;
25950;SDS011;13748;52.240;6.002;2022-08-04T05:21:43;10.25;;;5.68;;
25950;SDS011;13748;52.240;6.002;2022-08-04T05:24:14;8.18;;;5.70;;
25950;SDS011;13748;52.240;6.002;2022-08-04T05:26:46;10.80;;;5.47;;
25950;SDS011;13748;52.240;6.002;2022-08-04T05:29:21;6.78;;;5.05;;
25950;SDS011;13748;52.240;6.002;2022-08-04T05:31:56;8.15;;;4.97;;
25950;SDS011;13748;52.240;6.002;2022-08-04T05:34:27;9.15;;;5.60;;
25950;SDS011;13748;52.240;6.002;2022-08-04T05:36:59;7.47;;;4.95;;
25950;SDS011;13748;52.240;6.002;2022-08-04T05:39:32;7.90;;;4.90;;
25950;SDS011;13748;52.240;6.002;2022-08-04T05:42:04;9.57;;;5.47;;
25950;SDS011;13748;52.240;6.002;2022-08-04T05:44:32;9.73;;;6.43;;
25950;SDS011;13748;52.240;6.002;2022-08-04T05:47:01;9.10;;;5.35;;
25950;SDS011;13748;52.240;6.002;2022-08-04T05:49:29;7.53;;;5.28;;
25950;SDS011;13748;52.240;6.002;2022-08-04T05:52:01;14.65;;;5.53;;
25950;SDS011;13748;52.240;6.002;2022-08-04T05:54:29;17.80;;;5.88;;
25950;SDS011;13748;52.240;6.002;2022-08-04T05:56:58;11.77;;;5.28;;
25950;SDS011;13748;52.240;6.002;2022-08-04T05:59:25;8.30;;;5.50;;
25950;SDS011;13748;52.240;6.002;2022-08-04T06:01:54;6.13;;;4.97;;
25950;SDS011;13748;52.240;6.002;2022-08-04T06:04:24;9.02;;;4.65;;
25950;SDS011;13748;52.240;6.002;2022-08-04T06:06:56;8.63;;;4.93;;
25950;SDS011;13748;52.240;6.002;2022-08-04T06:09:22;8.65;;;5.10;;
25950;SDS011;13748;52.240;6.002;2022-08-04T06:11:49;7.43;;;4.57;;
25950;SDS011;13748;52.240;6.002;2022-08-04T06:14:30;7.20;;;4.60;;
25950;SDS011;13748;52.240;6.002;2022-08-04T06:17:00;7.65;;;4.68;;
25950;SDS011;13748;52.240;6.002;2022-08-04T06:19:51;7.38;;;4.05;;
25950;SDS011;13748;52.240;6.002;2022-08-04T06:22:40;9.05;;;4.15;;
25950;SDS011;13748;52.240;6.002;2022-08-04T06:25:09;9.20;;;4.15;;
25950;SDS011;13748;52.240;6.002;2022-08-04T06:27:39;8.43;;;4.60;;
25950;SDS011;13748;52.240;6.002;2022-08-04T06:30:07;6.88;;;4.45;;
25950;SDS011;13748;52.240;6.002;2022-08-04T06:32:40;5.57;;;3.88;;
25950;SDS011;13748;52.240;6.002;2022-08-04T06:35:30;8.70;;;4.78;;
25950;SDS011;13748;52.240;6.002;2022-08-04T06:37:57;8.20;;;4.40;;
25950;SDS011;13748;52.240;6.002;2022-08-04T06:40:26;7.65;;;4.25;;
25950;SDS011;13748;52.240;6.002;2022-08-04T06:43:03;7.93;;;4.55;;
25950;SDS011;13748;52.240;6.002;2022-08-04T06:45:32;7.88;;;4.60;;
25950;SDS011;13748;52.240;6.002;2022-08-04T06:48:02;5.95;;;4.32;;
25950;SDS011;13748;52.240;6.002;2022-08-04T06:50:33;7.03;;;4.20;;
25950;SDS011;13748;52.240;6.002;2022-08-04T06:53:21;6.28;;;4.53;;
25950;SDS011;13748;52.240;6.002;2022-08-04T06:55:49;8.70;;;4.13;;
25950;SDS011;13748;52.240;6.002;2022-08-04T06:58:17;9.93;;;4.57;;
25950;SDS011;13748;52.240;6.002;2022-08-04T07:00:47;7.05;;;4.47;;
25950;SDS011;13748;52.240;6.002;2022-08-04T07:03:15;6.57;;;4.28;;
25950;SDS011;13748;52.240;6.002;2022-08-04T07:05:47;8.18;;;4.10;;
25950;SDS011;13748;52.240;6.002;2022-08-04T07:08:16;7.57;;;4.10;;
25950;SDS011;13748;52.240;6.002;2022-08-04T07:10:43;7.72;;;4.10;;
25950;SDS011;13748;52.240;6.002;2022-08-04T07:13:11;5.85;;;3.95;;
25950;SDS011;13748;52.240;6.002;2022-08-04T07:15:40;8.30;;;4.25;;
25950;SDS011;13748;52.240;6.002;2022-08-04T07:18:10;10.35;;;4.22;;
25950;SDS011;13748;52.240;6.002;2022-08-04T07:20:43;8.57;;;4.80;;
25950;SDS011;13748;52.240;6.002;2022-08-04T07:23:12;8.63;;;3.88;;
25950;SDS011;13748;52.240;6.002;2022-08-04T07:25:43;9.55;;;4.00;;
25950;SDS011;13748;52.240;6.002;2022-08-04T07:28:34;8.68;;;4.20;;
25950;SDS011;13748;52.240;6.002;2022-08-04T07:31:01;11.30;;;4.38;;
25950;SDS011;13748;52.240;6.002;2022-08-04T07:33:30;6.97;;;3.70;;
25950;SDS011;13748;52.240;6.002;2022-08-04T07:35:58;6.38;;;3.67;;
25950;SDS011;13748;52.240;6.002;2022-08-04T07:38:36;7.75;;;3.83;;
25950;SDS011;13748;52.240;6.002;2022-08-04T07:41:18;9.35;;;3.42;;
25950;SDS011;13748;52.240;6.002;2022-08-04T07:44:03;7.82;;;3.90;;
25950;SDS011;13748;52.240;6.002;2022-08-04T07:46:32;10.18;;;3.83;;
25950;SDS011;13748;52.240;6.002;2022-08-04T07:48:59;9.50;;;3.70;;
25950;SDS011;13748;52.240;6.002;2022-08-04T07:51:26;8.48;;;3.47;;
25950;SDS011;13748;52.240;6.002;2022-08-04T07:53:56;12.00;;;3.60;;
25950;SDS011;13748;52.240;6.002;2022-08-04T07:56:24;11.30;;;3.80;;
25950;SDS011;13748;52.240;6.002;2022-08-04T07:58:52;7.20;;;3.38;;
25950;SDS011;13748;52.240;6.002;2022-08-04T08:01:20;6.38;;;3.47;;
25950;SDS011;13748;52.240;6.002;2022-08-04T08:03:47;11.57;;;3.75;;
25950;SDS011;13748;52.240;6.002;2022-08-04T08:06:16;7.50;;;3.28;;
25950;SDS011;13748;52.240;6.002;2022-08-04T08:09:00;7.07;;;3.28;;
25950;SDS011;13748;52.240;6.002;2022-08-04T08:11:43;7.35;;;3.25;;
25950;SDS011;13748;52.240;6.002;2022-08-04T08:14:34;9.35;;;3.22;;
25950;SDS011;13748;52.240;6.002;2022-08-04T08:17:01;6.68;;;3.13;;
25950;SDS011;13748;52.240;6.002;2022-08-04T08:19:29;7.40;;;3.35;;
25950;SDS011;13748;52.240;6.002;2022-08-04T08:21:57;8.57;;;2.92;;
25950;SDS011;13748;52.240;6.002;2022-08-04T08:24:31;6.80;;;2.95;;
25950;SDS011;13748;52.240;6.002;2022-08-04T08:27:00;10.50;;;3.10;;
25950;SDS011;13748;52.240;6.002;2022-08-04T08:29:29;6.68;;;2.95;;
25950;SDS011;13748;52.240;6.002;2022-08-04T08:31:59;15.02;;;3.47;;
25950;SDS011;13748;52.240;6.002;2022-08-04T08:34:33;7.60;;;3.38;;
25950;SDS011;13748;52.240;6.002;2022-08-04T08:37:08;6.63;;;2.85;;
25950;SDS011;13748;52.240;6.002;2022-08-04T08:39:43;11.02;;;3.13;;
25950;SDS011;13748;52.240;6.002;2022-08-04T08:51:09;9.90;;;3.17;;
25950;SDS011;13748;52.240;6.002;2022-08-04T08:54:21;7.78;;;3.10;;
25950;SDS011;13748;52.240;6.002;2022-08-04T09:05:07;6.15;;;3.00;;
25950;SDS011;13748;52.240;6.002;2022-08-04T09:07:49;8.05;;;3.53;;
25950;SDS011;13748;52.240;6.002;2022-08-04T09:10:42;6.75;;;3.30;;
25950;SDS011;13748;52.240;6.002;2022-08-04T09:13:16;6.82;;;3.17;;
25950;SDS011;13748;52.240;6.002;2022-08-04T09:18:53;6.78;;;3.53;;
25950;SDS011;13748;52.240;6.002;2022-08-04T09:25:02;7.78;;;3.30;;
25950;SDS011;13748;52.240;6.002;2022-08-04T09:27:57;7.97;;;3.60;;
25950;SDS011;13748;52.240;6.002;2022-08-04T09:33:17;5.72;;;3.05;;
25950;SDS011;13748;52.240;6.002;2022-08-04T09:36:26;6.25;;;3.00;;
25950;SDS011;13748;52.240;6.002;2022-08-04T09:44:30;8.05;;;3.65;;
25950;SDS011;13748;52.240;6.002;2022-08-04T09:47:30;4.80;;;2.97;;
25950;SDS011;13748;52.240;6.002;2022-08-04T09:52:57;8.85;;;3.30;;
25950;SDS011;13748;52.240;6.002;2022-08-04T09:55:46;8.93;;;2.95;;
25950;SDS011;13748;52.240;6.002;2022-08-04T09:58:34;4.60;;;2.80;;
25950;SDS011;13748;52.240;6.002;2022-08-04T10:01:13;3.42;;;2.40;;
25950;SDS011;13748;52.240;6.002;2022-08-04T10:03:49;4.68;;;2.72;;
25950;SDS011;13748;52.240;6.002;2022-08-04T10:09:36;6.10;;;2.30;;
25950;SDS011;13748;52.240;6.002;2022-08-04T10:14:51;8.57;;;2.63;;
25950;SDS011;13748;52.240;6.002;2022-08-04T10:26:33;6.22;;;2.15;;
25950;SDS011;13748;52.240;6.002;2022-08-04T10:32:15;6.63;;;1.90;;
25950;SDS011;13748;52.240;6.002;2022-08-04T10:35:10;4.32;;;1.83;;
25950;SDS011;13748;52.240;6.002;2022-08-04T10:38:05;3.20;;;1.80;;
25950;SDS011;13748;52.240;6.002;2022-08-04T10:46:06;7.05;;;2.13;;
25950;SDS011;13748;52.240;6.002;2022-08-04T10:51:44;5.50;;;1.80;;
25950;SDS011;13748;52.240;6.002;2022-08-04T11:02:33;6.45;;;2.22;;
25950;SDS011;13748;52.240;6.002;2022-08-04T11:05:28;3.33;;;1.98;;
25950;SDS011;13748;52.240;6.002;2022-08-04T11:08:16;7.15;;;2.28;;
25950;SDS011;13748;52.240;6.002;2022-08-04T11:10:55;6.18;;;2.10;;
25950;SDS011;13748;52.240;6.002;2022-08-04T11:13:28;5.80;;;1.85;;
25950;SDS011;13748;52.240;6.002;2022-08-04T11:16:01;6.28;;;2.00;;
25950;SDS011;13748;52.240;6.002;2022-08-04T11:18:48;4.03;;;1.70;;
25950;SDS011;13748;52.240;6.002;2022-08-04T11:21:25;4.10;;;1.83;;
25950;SDS011;13748;52.240;6.002;2022-08-04T11:24:05;4.45;;;2.40;;
25950;SDS011;13748;52.240;6.002;2022-08-04T11:26:57;4.00;;;2.08;;
25950;SDS011;13748;52.240;6.002;2022-08-04T11:29:30;2.72;;;1.45;;
25950;SDS011;13748;52.240;6.002;2022-08-04T11:32:09;3.63;;;1.73;;
25950;SDS011;13748;52.240;6.002;2022-08-04T11:34:44;2.63;;;1.60;;
25950;SDS011;13748;52.240;6.002;2022-08-04T11:37:24;5.78;;;1.90;;
25950;SDS011;13748;52.240;6.002;2022-08-04T11:40:10;4.47;;;1.55;;
25950;SDS011;13748;52.240;6.002;2022-08-04T11:42:40;3.33;;;1.75;;
25950;SDS011;13748;52.240;6.002;2022-08-04T11:45:30;6.00;;;2.22;;
25950;SDS011;13748;52.240;6.002;2022-08-04T11:48:03;3.40;;;2.05;;
25950;SDS011;13748;52.240;6.002;2022-08-04T11:50:42;5.35;;;1.98;;
25950;SDS011;13748;52.240;6.002;2022-08-04T11:53:24;3.50;;;2.10;;
25950;SDS011;13748;52.240;6.002;2022-08-04T11:56:03;6.03;;;2.30;;
25950;SDS011;13748;52.240;6.002;2022-08-04T11:58:36;3.83;;;2.20;;
25950;SDS011;13748;52.240;6.002;2022-08-04T12:07:22;6.95;;;2.97;;
25950;SDS011;13748;52.240;6.002;2022-08-04T12:10:17;2.83;;;2.10;;
25950;SDS011;13748;52.240;6.002;2022-08-04T12:18:49;4.07;;;2.38;;
25950;SDS011;13748;52.240;6.002;2022-08-04T12:21:41;4.55;;;2.30;;
25950;SDS011;13748;52.240;6.002;2022-08-04T12:24:21;5.30;;;2.80;;
25950;SDS011;13748;52.240;6.002;2022-08-04T12:26:57;5.72;;;2.42;;
25950;SDS011;13748;52.240;6.002;2022-08-04T12:29:32;4.70;;;2.40;;
25950;SDS011;13748;52.240;6.002;2022-08-04T12:38:02;3.60;;;1.85;;
25950;SDS011;13748;52.240;6.002;2022-08-04T12:40:45;4.63;;;2.10;;
25950;SDS011;13748;52.240;6.002;2022-08-04T12:46:11;2.95;;;1.77;;
25950;SDS011;13748;52.240;6.002;2022-08-04T12:48:48;7.18;;;2.00;;
25950;SDS011;13748;52.240;6.002;2022-08-04T12:51:16;2.47;;;1.50;;
25950;SDS011;13748;52.240;6.002;2022-08-04T12:54:04;4.28;;;1.75;;
25950;SDS011;13748;52.240;6.002;2022-08-04T12:56:32;4.13;;;1.85;;
25950;SDS011;13748;52.240;6.002;2022-08-04T12:59:01;4.75;;;2.30;;
25950;SDS011;13748;52.240;6.002;2022-08-04T13:01:31;4.65;;;2.20;;
25950;SDS011;13748;52.240;6.002;2022-08-04T13:04:23;5.72;;;2.78;;
25950;SDS011;13748;52.240;6.002;2022-08-04T13:07:04;4.15;;;2.10;;
25950;SDS011;13748;52.240;6.002;2022-08-04T13:09:36;2.75;;;1.70;;
25950;SDS011;13748;52.240;6.002;2022-08-04T13:12:04;4.38;;;2.03;;
25950;SDS011;13748;52.240;6.002;2022-08-04T13:14:44;2.78;;;1.83;;
25950;SDS011;13748;52.240;6.002;2022-08-04T13:17:15;4.18;;;2.03;;
25950;SDS011;13748;52.240;6.002;2022-08-04T13:19:46;4.90;;;1.73;;
25950;SDS011;13748;52.240;6.002;2022-08-04T13:22:24;4.82;;;2.30;;
25950;SDS011;13748;52.240;6.002;2022-08-04T13:24:54;4.30;;;2.10;;
25950;SDS011;13748;52.240;6.002;2022-08-04T13:27:43;4.32;;;1.70;;
25950;SDS011;13748;52.240;6.002;2022-08-04T13:30:20;6.72;;;2.08;;
25950;SDS011;13748;52.240;6.002;2022-08-04T13:32:51;2.90;;;1.67;;
25950;SDS011;13748;52.240;6.002;2022-08-04T13:35:20;2.92;;;1.60;;
25950;SDS011;13748;52.240;6.002;2022-08-04T13:38:09;3.63;;;1.80;;
25950;SDS011;13748;52.240;6.002;2022-08-04T13:40:40;5.60;;;1.60;;
25950;SDS011;13748;52.240;6.002;2022-08-04T13:43:09;4.53;;;1.67;;
25950;SDS011;13748;52.240;6.002;2022-08-04T13:52:44;6.18;;;1.88;;
25950;SDS011;13748;52.240;6.002;2022-08-04T13:55:19;3.95;;;2.17;;
25950;SDS011;13748;52.240;6.002;2022-08-04T14:00:57;4.13;;;1.73;;
25950;SDS011;13748;52.240;6.002;2022-08-04T14:06:33;3.13;;;1.73;;
25950;SDS011;13748;52.240;6.002;2022-08-04T14:09:09;3.88;;;1.77;;
25950;SDS011;13748;52.240;6.002;2022-08-04T14:11:46;4.00;;;1.95;;
25950;SDS011;13748;52.240;6.002;2022-08-04T14:14:36;5.15;;;1.80;;
25950;SDS011;13748;52.240;6.002;2022-08-04T14:17:15;3.60;;;1.90;;
25950;SDS011;13748;52.240;6.002;2022-08-04T14:19:47;2.05;;;1.58;;
25950;SDS011;13748;52.240;6.002;2022-08-04T14:25:07;3.20;;;1.60;;
25950;SDS011;13748;52.240;6.002;2022-08-04T14:33:01;2.85;;;1.92;;
25950;SDS011;13748;52.240;6.002;2022-08-04T14:35:59;4.30;;;1.98;;
25950;SDS011;13748;52.240;6.002;2022-08-04T14:41:10;3.28;;;1.75;;
25950;SDS011;13748;52.240;6.002;2022-08-04T14:46:14;3.03;;;1.80;;
25950;SDS011;13748;52.240;6.002;2022-08-04T14:49:05;3.00;;;2.00;;
25950;SDS011;13748;52.240;6.002;2022-08-04T14:51:43;3.22;;;1.85;;
25950;SDS011;13748;52.240;6.002;2022-08-04T14:54:12;3.22;;;1.83;;
25950;SDS011;13748;52.240;6.002;2022-08-04T14:56:50;2.55;;;1.92;;
25950;SDS011;13748;52.240;6.002;2022-08-04T14:59:19;2.67;;;2.05;;
25950;SDS011;13748;52.240;6.002;2022-08-04T15:01:47;2.20;;;1.63;;
25950;SDS011;13748;52.240;6.002;2022-08-04T15:04:26;2.47;;;1.80;;
25950;SDS011;13748;52.240;6.002;2022-08-04T15:06:54;3.08;;;1.80;;
25950;SDS011;13748;52.240;6.002;2022-08-04T15:09:21;3.15;;;1.98;;
25950;SDS011;13748;52.240;6.002;2022-08-04T15:11:49;3.78;;;1.80;;
25950;SDS011;13748;52.240;6.002;2022-08-04T15:14:15;4.43;;;2.00;;
25950;SDS011;13748;52.240;6.002;2022-08-04T15:17:02;3.03;;;1.50;;
25950;SDS011;13748;52.240;6.002;2022-08-04T15:19:37;2.17;;;1.50;;
25950;SDS011;13748;52.240;6.002;2022-08-04T15:22:05;2.63;;;1.63;;
25950;SDS011;13748;52.240;6.002;2022-08-04T15:24:42;3.50;;;1.75;;
25950;SDS011;13748;52.240;6.002;2022-08-04T15:27:17;3.28;;;1.70;;
25950;SDS011;13748;52.240;6.002;2022-08-04T15:29:45;1.70;;;1.50;;
25950;SDS011;13748;52.240;6.002;2022-08-04T15:32:30;5.88;;;1.75;;
25950;SDS011;13748;52.240;6.002;2022-08-04T15:35:00;3.58;;;1.63;;
25950;SDS011;13748;52.240;6.002;2022-08-04T15:37:30;1.73;;;1.38;;
25950;SDS011;13748;52.240;6.002;2022-08-04T15:40:19;3.50;;;1.60;;
25950;SDS011;13748;52.240;6.002;2022-08-04T15:45:46;3.88;;;1.75;;
25950;SDS011;13748;52.240;6.002;2022-08-04T15:48:35;5.25;;;1.98;;
25950;SDS011;13748;52.240;6.002;2022-08-04T15:51:07;2.78;;;1.60;;
25950;SDS011;13748;52.240;6.002;2022-08-04T15:58:54;2.85;;;1.40;;
25950;SDS011;13748;52.240;6.002;2022-08-04T16:01:22;3.97;;;1.90;;
25950;SDS011;13748;52.240;6.002;2022-08-04T16:03:49;5.13;;;2.30;;
25950;SDS011;13748;52.240;6.002;2022-08-04T16:08:56;2.17;;;1.20;;
25950;SDS011;13748;52.240;6.002;2022-08-04T16:14:08;1.67;;;1.40;;
25950;SDS011;13748;52.240;6.002;2022-08-04T16:19:10;4.32;;;1.52;;
25950;SDS011;13748;52.240;6.002;2022-08-04T16:22:01;3.45;;;1.52;;
25950;SDS011;13748;52.240;6.002;2022-08-04T16:24:29;3.50;;;1.75;;
25950;SDS011;13748;52.240;6.002;2022-08-04T16:27:02;5.07;;;1.70;;
25950;SDS011;13748;52.240;6.002;2022-08-04T16:29:32;3.65;;;2.28;;
25950;SDS011;13748;52.240;6.002;2022-08-04T16:34:53;4.53;;;1.85;;
25950;SDS011;13748;52.240;6.002;2022-08-04T16:37:30;4.35;;;1.98;;
25950;SDS011;13748;52.240;6.002;2022-08-04T16:43:15;3.80;;;2.17;;
25950;SDS011;13748;52.240;6.002;2022-08-04T16:45:50;3.70;;;2.65;;
25950;SDS011;13748;52.240;6.002;2022-08-04T16:48:27;3.78;;;2.58;;
25950;SDS011;13748;52.240;6.002;2022-08-04T16:56:31;4.35;;;1.98;;
25950;SDS011;13748;52.240;6.002;2022-08-04T16:59:04;9.18;;;2.67;;
25950;SDS011;13748;52.240;6.002;2022-08-04T17:01:33;8.20;;;2.13;;
25950;SDS011;13748;52.240;6.002;2022-08-04T17:04:01;3.15;;;1.80;;
25950;SDS011;13748;52.240;6.002;2022-08-04T17:06:36;2.53;;;1.85;;
25950;SDS011;13748;52.240;6.002;2022-08-04T17:09:26;4.90;;;1.98;;
25950;SDS011;13748;52.240;6.002;2022-08-04T17:11:54;3.90;;;1.98;;
25950;SDS011;13748;52.240;6.002;2022-08-04T17:14:23;3.30;;;2.15;;
25950;SDS011;13748;52.240;6.002;2022-08-04T17:16:58;4.18;;;1.83;;
25950;SDS011;13748;52.240;6.002;2022-08-04T17:19:27;3.97;;;1.70;;
25950;SDS011;13748;52.240;6.002;2022-08-04T17:21:55;2.95;;;1.70;;
25950;SDS011;13748;52.240;6.002;2022-08-04T17:24:39;5.15;;;2.17;;
25950;SDS011;13748;52.240;6.002;2022-08-04T17:27:06;4.80;;;2.00;;
25950;SDS011;13748;52.240;6.002;2022-08-04T17:29:53;8.02;;;1.95;;
25950;SDS011;13748;52.240;6.002;2022-08-04T17:32:20;10.05;;;2.55;;
25950;SDS011;13748;52.240;6.002;2022-08-04T17:34:49;5.30;;;1.83;;
25950;SDS011;13748;52.240;6.002;2022-08-04T17:37:19;4.85;;;2.05;;
25950;SDS011;13748;52.240;6.002;2022-08-04T17:40:09;4.57;;;1.95;;
25950;SDS011;13748;52.240;6.002;2022-08-04T17:43:04;4.68;;;2.17;;
25950;SDS011;13748;52.240;6.002;2022-08-04T17:46:26;3.92;;;2.03;;
25950;SDS011;13748;52.240;6.002;2022-08-04T17:51:26;7.13;;;2.53;;
25950;SDS011;13748;52.240;6.002;2022-08-04T17:54:40;4.35;;;2.22;;
25950;SDS011;13748;52.240;6.002;2022-08-04T17:57:12;5.18;;;1.88;;
25950;SDS011;13748;52.240;6.002;2022-08-04T17:59:47;5.03;;;1.90;;
25950;SDS011;13748;52.240;6.002;2022-08-04T18:02:25;5.07;;;1.90;;
25950;SDS011;13748;52.240;6.002;2022-08-04T18:04:59;4.15;;;2.10;;
25950;SDS011;13748;52.240;6.002;2022-08-04T18:07:38;5.60;;;2.38;;
25950;SDS011;13748;52.240;6.002;2022-08-04T18:10:38;2.63;;;1.60;;
25950;SDS011;13748;52.240;6.002;2022-08-04T18:13:22;3.78;;;2.10;;
25950;SDS011;13748;52.240;6.002;2022-08-04T18:15:58;4.60;;;1.95;;
25950;SDS011;13748;52.240;6.002;2022-08-04T18:19:07;3.50;;;2.22;;
25950;SDS011;13748;52.240;6.002;2022-08-04T18:21:44;4.55;;;2.47;;
25950;SDS011;13748;52.240;6.002;2022-08-04T18:24:29;5.40;;;2.10;;
25950;SDS011;13748;52.240;6.002;2022-08-04T18:27:17;3.80;;;2.40;;
25950;SDS011;13748;52.240;6.002;2022-08-04T18:29:47;4.93;;;2.55;;
25950;SDS011;13748;52.240;6.002;2022-08-04T18:32:34;5.97;;;2.20;;
25950;SDS011;13748;52.240;6.002;2022-08-04T18:35:01;5.55;;;2.45;;
25950;SDS011;13748;52.240;6.002;2022-08-04T18:37:33;4.75;;;2.55;;
25950;SDS011;13748;52.240;6.002;2022-08-04T18:40:21;3.70;;;2.08;;
25950;SDS011;13748;52.240;6.002;2022-08-04T18:43:00;5.20;;;2.25;;
25950;SDS011;13748;52.240;6.002;2022-08-04T18:45:28;6.07;;;2.33;;
25950;SDS011;13748;52.240;6.002;2022-08-04T18:48:00;4.07;;;2.05;;
25950;SDS011;13748;52.240;6.002;2022-08-04T18:50:29;3.75;;;2.05;;
25950;SDS011;13748;52.240;6.002;2022-08-04T18:53:16;5.20;;;2.05;;
25950;SDS011;13748;52.240;6.002;2022-08-04T18:55:43;4.32;;;2.17;;
25950;SDS011;13748;52.240;6.002;2022-08-04T18:58:23;3.42;;;2.30;;
25950;SDS011;13748;52.240;6.002;2022-08-04T19:00:53;3.83;;;2.35;;
25950;SDS011;13748;52.240;6.002;2022-08-04T19:03:21;3.80;;;2.08;;
25950;SDS011;13748;52.240;6.002;2022-08-04T19:05:49;3.47;;;2.10;;
25950;SDS011;13748;52.240;6.002;2022-08-04T19:08:16;4.32;;;2.35;;
25950;SDS011;13748;52.240;6.002;2022-08-04T19:11:01;7.53;;;2.75;;
25950;SDS011;13748;52.240;6.002;2022-08-04T19:13:49;7.38;;;2.28;;
25950;SDS011;13748;52.240;6.002;2022-08-04T19:16:23;6.72;;;2.25;;
25950;SDS011;13748;52.240;6.002;2022-08-04T19:18:54;4.38;;;2.40;;
25950;SDS011;13748;52.240;6.002;2022-08-04T19:21:21;3.05;;;2.30;;
25950;SDS011;13748;52.240;6.002;2022-08-04T19:24:09;4.18;;;2.60;;
25950;SDS011;13748;52.240;6.002;2022-08-04T19:26:57;6.40;;;2.20;;
25950;SDS011;13748;52.240;6.002;2022-08-04T19:29:24;5.72;;;2.58;;
25950;SDS011;13748;52.240;6.002;2022-08-04T19:32:06;5.15;;;2.53;;
25950;SDS011;13748;52.240;6.002;2022-08-04T19:34:41;6.93;;;2.75;;
25950;SDS011;13748;52.240;6.002;2022-08-04T19:37:12;4.55;;;2.60;;
25950;SDS011;13748;52.240;6.002;2022-08-04T19:40:00;6.72;;;2.60;;
25950;SDS011;13748;52.240;6.002;2022-08-04T19:42:30;4.95;;;2.72;;
25950;SDS011;13748;52.240;6.002;2022-08-04T19:44:56;5.05;;;2.85;;
25950;SDS011;13748;52.240;6.002;2022-08-04T19:47:24;6.15;;;2.63;;
25950;SDS011;13748;52.240;6.002;2022-08-04T19:50:11;5.53;;;3.17;;
25950;SDS011;13748;52.240;6.002;2022-08-04T19:52:39;4.07;;;2.53;;
25950;SDS011;13748;52.240;6.002;2022-08-04T19:55:17;5.70;;;2.60;;
25950;SDS011;13748;52.240;6.002;2022-08-04T19:57:47;4.57;;;2.72;;
25950;SDS011;13748;52.240;6.002;2022-08-04T20:00:15;8.35;;;3.35;;
25950;SDS011;13748;52.240;6.002;2022-08-04T20:02:59;6.15;;;2.88;;
25950;SDS011;13748;52.240;6.002;2022-08-04T20:05:27;4.60;;;2.70;;
25950;SDS011;13748;52.240;6.002;2022-08-04T20:08:15;7.32;;;3.47;;
25950;SDS011;13748;52.240;6.002;2022-08-04T20:10:42;6.25;;;3.17;;
25950;SDS011;13748;52.240;6.002;2022-08-04T20:13:17;7.57;;;2.63;;
25950;SDS011;13748;52.240;6.002;2022-08-04T20:15:46;7.30;;;2.78;;
25950;SDS011;13748;52.240;6.002;2022-08-04T20:18:20;5.07;;;3.00;;
25950;SDS011;13748;52.240;6.002;2022-08-04T20:21:07;4.72;;;3.00;;
25950;SDS011;13748;52.240;6.002;2022-08-04T20:23:44;5.78;;;2.90;;
25950;SDS011;13748;52.240;6.002;2022-08-04T20:26:15;6.95;;;3.13;;
25950;SDS011;13748;52.240;6.002;2022-08-04T20:28:42;5.88;;;3.03;;
25950;SDS011;13748;52.240;6.002;2022-08-04T20:31:16;5.68;;;3.10;;
25950;SDS011;13748;52.240;6.002;2022-08-04T20:33:44;3.85;;;2.70;;